sensor_id;sensor_type;location;lat;lon;timestamp;temperature;humidity
65058;HTU21D;51644;51.068;5.860;2023-05-10T00:00:30;15.06;92.73
65058;HTU21D;51644;51.068;5.860;2023-05-10T00:01:39;15.08;92.62
65058;HTU21D;51644;51.068;5.860;2023-05-10T00:02:39;15.06;92.58
65058;HTU21D;51644;51.068;5.860;2023-05-10T00:03:41;15.04;92.58
65058;HTU21D;51644;51.068;5.860;2023-05-10T00:04:53;15.03;92.53
65058;HTU21D;51644;51.068;5.860;2023-05-10T00:05:54;15.01;92.56
65058;HTU21D;51644;51.068;5.860;2023-05-10T00:06:54;15.01;92.58
65058;HTU21D;51644;51.068;5.860;2023-05-10T00:07:53;15.01;92.60
65058;HTU21D;51644;51.068;5.860;2023-05-10T00:08:55;15.00;92.66
65058;HTU21D;51644;51.068;5.860;2023-05-10T00:09:54;14.96;92.72
65058;HTU21D;51644;51.068;5.860;2023-05-10T00:10:53;14.97;92.63
65058;HTU21D;51644;51.068;5.860;2023-05-10T00:11:52;14.95;92.71
65058;HTU21D;51644;51.068;5.860;2023-05-10T00:12:54;14.92;92.73
65058;HTU21D;51644;51.068;5.860;2023-05-10T00:13:53;14.93;92.75
65058;HTU21D;51644;51.068;5.860;2023-05-10T00:14:52;14.91;92.74
65058;HTU21D;51644;51.068;5.860;2023-05-10T00:15:50;14.93;92.75
65058;HTU21D;51644;51.068;5.860;2023-05-10T00:16:49;14.91;92.82
65058;HTU21D;51644;51.068;5.860;2023-05-10T00:17:51;14.92;92.82
65058;HTU21D;51644;51.068;5.860;2023-05-10T00:18:52;14.91;92.81
65058;HTU21D;51644;51.068;5.860;2023-05-10T00:19:51;14.83;93.24
65058;HTU21D;51644;51.068;5.860;2023-05-10T00:20:50;14.84;93.01
65058;HTU21D;51644;51.068;5.860;2023-05-10T00:21:51;14.83;93.04
65058;HTU21D;51644;51.068;5.860;2023-05-10T00:22:50;14.81;93.23
65058;HTU21D;51644;51.068;5.860;2023-05-10T00:23:49;14.80;93.21
65058;HTU21D;51644;51.068;5.860;2023-05-10T00:24:48;14.80;93.17
65058;HTU21D;51644;51.068;5.860;2023-05-10T00:25:47;14.81;93.23
65058;HTU21D;51644;51.068;5.860;2023-05-10T00:26:46;14.80;93.24
65058;HTU21D;51644;51.068;5.860;2023-05-10T00:27:46;14.79;93.21
65058;HTU21D;51644;51.068;5.860;2023-05-10T00:28:45;14.80;93.20
65058;HTU21D;51644;51.068;5.860;2023-05-10T00:29:46;14.77;93.32
65058;HTU21D;51644;51.068;5.860;2023-05-10T00:30:47;14.78;93.24
65058;HTU21D;51644;51.068;5.860;2023-05-10T00:31:46;14.77;93.34
65058;HTU21D;51644;51.068;5.860;2023-05-10T00:32:45;14.77;93.35
65058;HTU21D;51644;51.068;5.860;2023-05-10T00:33:44;14.78;93.35
65058;HTU21D;51644;51.068;5.860;2023-05-10T00:34:46;14.79;93.35
65058;HTU21D;51644;51.068;5.860;2023-05-10T00:35:47;14.81;93.33
65058;HTU21D;51644;51.068;5.860;2023-05-10T00:36:49;14.83;93.29
65058;HTU21D;51644;51.068;5.860;2023-05-10T00:37:47;14.85;93.28
65058;HTU21D;51644;51.068;5.860;2023-05-10T00:38:47;14.86;93.21
65058;HTU21D;51644;51.068;5.860;2023-05-10T00:39:45;14.86;93.24
65058;HTU21D;51644;51.068;5.860;2023-05-10T00:40:47;14.87;93.24
65058;HTU21D;51644;51.068;5.860;2023-05-10T00:41:55;14.88;93.22
65058;HTU21D;51644;51.068;5.860;2023-05-10T00:42:54;14.89;93.22
65058;HTU21D;51644;51.068;5.860;2023-05-10T00:43:56;14.93;93.20
65058;HTU21D;51644;51.068;5.860;2023-05-10T00:44:55;14.92;93.21
65058;HTU21D;51644;51.068;5.860;2023-05-10T00:45:58;14.94;93.21
65058;HTU21D;51644;51.068;5.860;2023-05-10T00:46:59;14.96;93.22
65058;HTU21D;51644;51.068;5.860;2023-05-10T00:48:00;14.96;93.24
65058;HTU21D;51644;51.068;5.860;2023-05-10T00:49:02;14.98;93.14
65058;HTU21D;51644;51.068;5.860;2023-05-10T00:50:05;14.99;93.10
65058;HTU21D;51644;51.068;5.860;2023-05-10T00:51:04;14.98;93.01
65058;HTU21D;51644;51.068;5.860;2023-05-10T00:52:04;14.99;93.01
65058;HTU21D;51644;51.068;5.860;2023-05-10T00:53:03;15.00;93.04
65058;HTU21D;51644;51.068;5.860;2023-05-10T00:54:03;15.01;93.05
65058;HTU21D;51644;51.068;5.860;2023-05-10T00:55:06;15.02;93.01
65058;HTU21D;51644;51.068;5.860;2023-05-10T00:56:14;15.02;93.00
65058;HTU21D;51644;51.068;5.860;2023-05-10T00:57:13;15.02;92.98
65058;HTU21D;51644;51.068;5.860;2023-05-10T00:58:12;15.03;92.95
65058;HTU21D;51644;51.068;5.860;2023-05-10T00:59:11;15.03;92.95
65058;HTU21D;51644;51.068;5.860;2023-05-10T01:00:11;15.02;93.03
65058;HTU21D;51644;51.068;5.860;2023-05-10T01:01:10;15.03;92.93
65058;HTU21D;51644;51.068;5.860;2023-05-10T01:02:20;15.04;92.90
65058;HTU21D;51644;51.068;5.860;2023-05-10T01:03:19;15.04;92.91
65058;HTU21D;51644;51.068;5.860;2023-05-10T01:04:23;15.08;92.88
65058;HTU21D;51644;51.068;5.860;2023-05-10T01:05:24;15.11;92.69
65058;HTU21D;51644;51.068;5.860;2023-05-10T01:06:26;15.11;92.59
65058;HTU21D;51644;51.068;5.860;2023-05-10T01:07:25;15.11;92.59
65058;HTU21D;51644;51.068;5.860;2023-05-10T01:08:28;15.12;92.55
65058;HTU21D;51644;51.068;5.860;2023-05-10T01:09:30;15.14;92.46
65058;HTU21D;51644;51.068;5.860;2023-05-10T01:10:30;15.14;92.41
65058;HTU21D;51644;51.068;5.860;2023-05-10T01:11:29;15.15;92.40
65058;HTU21D;51644;51.068;5.860;2023-05-10T01:12:28;15.18;92.34
65058;HTU21D;51644;51.068;5.860;2023-05-10T01:13:33;15.19;92.29
65058;HTU21D;51644;51.068;5.860;2023-05-10T01:14:33;15.21;92.18
65058;HTU21D;51644;51.068;5.860;2023-05-10T01:15:33;15.22;92.09
65058;HTU21D;51644;51.068;5.860;2023-05-10T01:16:40;15.21;92.08
65058;HTU21D;51644;51.068;5.860;2023-05-10T01:17:44;15.21;92.08
65058;HTU21D;51644;51.068;5.860;2023-05-10T01:18:44;15.16;92.18
65058;HTU21D;51644;51.068;5.860;2023-05-10T01:19:44;15.14;92.32
65058;HTU21D;51644;51.068;5.860;2023-05-10T01:20:51;15.10;92.34
65058;HTU21D;51644;51.068;5.860;2023-05-10T01:23:42;15.03;92.53
65058;HTU21D;51644;51.068;5.860;2023-05-10T01:26:59;14.95;93.00
65058;HTU21D;51644;51.068;5.860;2023-05-10T01:31:18;14.93;93.29
65058;HTU21D;51644;51.068;5.860;2023-05-10T01:33:48;14.89;93.31
65058;HTU21D;51644;51.068;5.860;2023-05-10T01:36:57;14.93;93.42
65058;HTU21D;51644;51.068;5.860;2023-05-10T01:38:17;14.95;93.43
65058;HTU21D;51644;51.068;5.860;2023-05-10T01:39:24;14.92;93.51
65058;HTU21D;51644;51.068;5.860;2023-05-10T01:40:35;14.93;93.46
65058;HTU21D;51644;51.068;5.860;2023-05-10T01:43:14;14.94;93.42
65058;HTU21D;51644;51.068;5.860;2023-05-10T01:44:35;14.96;93.36
65058;HTU21D;51644;51.068;5.860;2023-05-10T01:46:05;14.99;93.33
65058;HTU21D;51644;51.068;5.860;2023-05-10T01:47:37;15.01;93.26
65058;HTU21D;51644;51.068;5.860;2023-05-10T01:48:54;15.04;93.08
65058;HTU21D;51644;51.068;5.860;2023-05-10T01:50:02;15.02;93.04
65058;HTU21D;51644;51.068;5.860;2023-05-10T01:51:10;15.06;93.04
65058;HTU21D;51644;51.068;5.860;2023-05-10T01:52:14;15.07;93.06
65058;HTU21D;51644;51.068;5.860;2023-05-10T01:53:18;15.07;92.93
65058;HTU21D;51644;51.068;5.860;2023-05-10T01:54:24;15.07;92.85
65058;HTU21D;51644;51.068;5.860;2023-05-10T01:55:28;15.04;92.92
65058;HTU21D;51644;51.068;5.860;2023-05-10T01:56:30;15.03;92.90
65058;HTU21D;51644;51.068;5.860;2023-05-10T01:57:35;15.02;92.95
65058;HTU21D;51644;51.068;5.860;2023-05-10T01:58:36;15.03;92.98
65058;HTU21D;51644;51.068;5.860;2023-05-10T01:59:49;15.04;92.91
65058;HTU21D;51644;51.068;5.860;2023-05-10T02:00:51;15.08;92.86
65058;HTU21D;51644;51.068;5.860;2023-05-10T02:01:57;15.06;92.85
65058;HTU21D;51644;51.068;5.860;2023-05-10T02:03:00;15.03;92.69
65058;HTU21D;51644;51.068;5.860;2023-05-10T02:04:02;15.03;92.66
65058;HTU21D;51644;51.068;5.860;2023-05-10T02:05:06;15.01;92.71
65058;HTU21D;51644;51.068;5.860;2023-05-10T02:06:10;14.98;92.79
65058;HTU21D;51644;51.068;5.860;2023-05-10T02:07:12;14.97;92.74
65058;HTU21D;51644;51.068;5.860;2023-05-10T02:08:14;14.96;92.78
65058;HTU21D;51644;51.068;5.860;2023-05-10T02:09:15;14.96;92.80
65058;HTU21D;51644;51.068;5.860;2023-05-10T02:10:19;14.94;92.90
65058;HTU21D;51644;51.068;5.860;2023-05-10T02:11:23;14.91;92.93
65058;HTU21D;51644;51.068;5.860;2023-05-10T02:12:28;14.91;93.06
65058;HTU21D;51644;51.068;5.860;2023-05-10T02:13:33;14.91;93.00
65058;HTU21D;51644;51.068;5.860;2023-05-10T02:14:36;14.88;93.09
65058;HTU21D;51644;51.068;5.860;2023-05-10T02:15:37;14.91;93.14
65058;HTU21D;51644;51.068;5.860;2023-05-10T02:16:38;14.91;93.08
65058;HTU21D;51644;51.068;5.860;2023-05-10T02:17:39;14.86;93.37
65058;HTU21D;51644;51.068;5.860;2023-05-10T02:18:44;14.84;93.35
65058;HTU21D;51644;51.068;5.860;2023-05-10T02:19:45;14.85;93.37
65058;HTU21D;51644;51.068;5.860;2023-05-10T02:20:47;14.85;93.40
65058;HTU21D;51644;51.068;5.860;2023-05-10T02:21:49;14.86;93.34
65058;HTU21D;51644;51.068;5.860;2023-05-10T02:22:53;14.86;93.32
65058;HTU21D;51644;51.068;5.860;2023-05-10T02:23:54;14.84;93.30
65058;HTU21D;51644;51.068;5.860;2023-05-10T02:24:59;14.85;93.34
65058;HTU21D;51644;51.068;5.860;2023-05-10T02:26:02;14.84;93.33
65058;HTU21D;51644;51.068;5.860;2023-05-10T02:27:03;14.83;93.40
65058;HTU21D;51644;51.068;5.860;2023-05-10T02:28:05;14.83;93.50
65058;HTU21D;51644;51.068;5.860;2023-05-10T02:29:06;14.80;93.49
65058;HTU21D;51644;51.068;5.860;2023-05-10T02:30:07;14.80;93.54
65058;HTU21D;51644;51.068;5.860;2023-05-10T02:31:07;14.79;93.53
65058;HTU21D;51644;51.068;5.860;2023-05-10T02:32:12;14.79;93.58
65058;HTU21D;51644;51.068;5.860;2023-05-10T02:33:13;14.75;93.85
65058;HTU21D;51644;51.068;5.860;2023-05-10T02:34:24;14.77;93.77
65058;HTU21D;51644;51.068;5.860;2023-05-10T02:35:26;14.73;93.82
65058;HTU21D;51644;51.068;5.860;2023-05-10T02:36:27;14.72;93.73
65058;HTU21D;51644;51.068;5.860;2023-05-10T02:37:26;14.70;93.79
65058;HTU21D;51644;51.068;5.860;2023-05-10T02:38:26;14.67;93.84
65058;HTU21D;51644;51.068;5.860;2023-05-10T02:39:28;14.65;93.75
65058;HTU21D;51644;51.068;5.860;2023-05-10T02:40:35;14.66;93.82
65058;HTU21D;51644;51.068;5.860;2023-05-10T02:41:37;14.66;93.81
65058;HTU21D;51644;51.068;5.860;2023-05-10T02:42:42;14.64;93.77
65058;HTU21D;51644;51.068;5.860;2023-05-10T02:43:44;14.60;93.96
65058;HTU21D;51644;51.068;5.860;2023-05-10T02:44:47;14.59;93.91
65058;HTU21D;51644;51.068;5.860;2023-05-10T02:45:48;14.58;93.86
65058;HTU21D;51644;51.068;5.860;2023-05-10T02:46:47;14.55;94.01
65058;HTU21D;51644;51.068;5.860;2023-05-10T02:47:47;14.53;94.02
65058;HTU21D;51644;51.068;5.860;2023-05-10T02:48:49;14.52;94.08
65058;HTU21D;51644;51.068;5.860;2023-05-10T02:49:51;14.50;94.03
65058;HTU21D;51644;51.068;5.860;2023-05-10T02:50:54;14.49;94.07
65058;HTU21D;51644;51.068;5.860;2023-05-10T02:52:00;14.49;94.07
65058;HTU21D;51644;51.068;5.860;2023-05-10T02:53:10;14.44;94.18
65058;HTU21D;51644;51.068;5.860;2023-05-10T02:54:18;14.44;94.19
65058;HTU21D;51644;51.068;5.860;2023-05-10T02:55:22;14.41;94.22
65058;HTU21D;51644;51.068;5.860;2023-05-10T02:56:25;14.41;94.30
65058;HTU21D;51644;51.068;5.860;2023-05-10T02:57:48;14.40;94.06
65058;HTU21D;51644;51.068;5.860;2023-05-10T02:58:49;14.43;93.94
65058;HTU21D;51644;51.068;5.860;2023-05-10T02:59:48;14.45;93.81
65058;HTU21D;51644;51.068;5.860;2023-05-10T03:00:47;14.47;93.66
65058;HTU21D;51644;51.068;5.860;2023-05-10T03:01:46;14.48;93.52
65058;HTU21D;51644;51.068;5.860;2023-05-10T03:02:51;14.48;93.35
65058;HTU21D;51644;51.068;5.860;2023-05-10T03:03:53;14.49;93.30
65058;HTU21D;51644;51.068;5.860;2023-05-10T03:04:52;14.51;93.11
65058;HTU21D;51644;51.068;5.860;2023-05-10T03:05:50;14.52;92.98
65058;HTU21D;51644;51.068;5.860;2023-05-10T03:06:52;14.54;92.98
65058;HTU21D;51644;51.068;5.860;2023-05-10T03:07:52;14.51;92.75
65058;HTU21D;51644;51.068;5.860;2023-05-10T03:08:51;14.51;92.82
65058;HTU21D;51644;51.068;5.860;2023-05-10T03:09:50;14.52;92.79
65058;HTU21D;51644;51.068;5.860;2023-05-10T03:12:33;14.52;92.56
65058;HTU21D;51644;51.068;5.860;2023-05-10T03:13:44;14.51;92.54
65058;HTU21D;51644;51.068;5.860;2023-05-10T03:15:00;14.49;92.57
65058;HTU21D;51644;51.068;5.860;2023-05-10T03:16:10;14.50;92.49
65058;HTU21D;51644;51.068;5.860;2023-05-10T03:18:44;14.52;92.27
65058;HTU21D;51644;51.068;5.860;2023-05-10T03:19:58;14.50;92.34
65058;HTU21D;51644;51.068;5.860;2023-05-10T03:21:02;14.48;92.21
65058;HTU21D;51644;51.068;5.860;2023-05-10T03:22:10;14.48;92.25
65058;HTU21D;51644;51.068;5.860;2023-05-10T03:23:20;14.47;92.24
65058;HTU21D;51644;51.068;5.860;2023-05-10T03:24:27;14.47;92.18
65058;HTU21D;51644;51.068;5.860;2023-05-10T03:25:31;14.48;92.06
65058;HTU21D;51644;51.068;5.860;2023-05-10T03:26:31;14.45;92.10
65058;HTU21D;51644;51.068;5.860;2023-05-10T03:27:41;14.45;92.00
65058;HTU21D;51644;51.068;5.860;2023-05-10T03:28:41;14.45;91.97
65058;HTU21D;51644;51.068;5.860;2023-05-10T03:29:42;14.47;91.92
65058;HTU21D;51644;51.068;5.860;2023-05-10T03:30:46;14.47;91.92
65058;HTU21D;51644;51.068;5.860;2023-05-10T03:31:45;14.49;91.82
65058;HTU21D;51644;51.068;5.860;2023-05-10T03:32:46;14.50;91.73
65058;HTU21D;51644;51.068;5.860;2023-05-10T03:33:50;14.51;91.71
65058;HTU21D;51644;51.068;5.860;2023-05-10T03:34:54;14.52;91.59
65058;HTU21D;51644;51.068;5.860;2023-05-10T03:35:52;14.52;91.56
65058;HTU21D;51644;51.068;5.860;2023-05-10T03:36:54;14.53;91.54
65058;HTU21D;51644;51.068;5.860;2023-05-10T03:37:53;14.48;91.77
65058;HTU21D;51644;51.068;5.860;2023-05-10T03:38:55;14.49;91.58
65058;HTU21D;51644;51.068;5.860;2023-05-10T03:39:57;14.49;91.50
65058;HTU21D;51644;51.068;5.860;2023-05-10T03:40:56;14.50;91.54
65058;HTU21D;51644;51.068;5.860;2023-05-10T03:41:55;14.47;91.79
65058;HTU21D;51644;51.068;5.860;2023-05-10T03:42:55;14.38;92.03
65058;HTU21D;51644;51.068;5.860;2023-05-10T03:43:59;14.37;91.98
65058;HTU21D;51644;51.068;5.860;2023-05-10T03:44:58;14.35;91.97
65058;HTU21D;51644;51.068;5.860;2023-05-10T03:45:57;14.34;92.01
65058;HTU21D;51644;51.068;5.860;2023-05-10T03:46:56;14.34;91.89
65058;HTU21D;51644;51.068;5.860;2023-05-10T03:47:55;14.36;91.98
65058;HTU21D;51644;51.068;5.860;2023-05-10T03:48:55;14.37;91.95
65058;HTU21D;51644;51.068;5.860;2023-05-10T03:49:58;14.36;92.08
65058;HTU21D;51644;51.068;5.860;2023-05-10T03:50:57;14.40;91.90
65058;HTU21D;51644;51.068;5.860;2023-05-10T03:51:57;14.38;91.92
65058;HTU21D;51644;51.068;5.860;2023-05-10T03:52:58;14.40;91.74
65058;HTU21D;51644;51.068;5.860;2023-05-10T03:53:59;14.39;91.72
65058;HTU21D;51644;51.068;5.860;2023-05-10T03:55:01;14.39;91.62
65058;HTU21D;51644;51.068;5.860;2023-05-10T03:56:02;14.40;91.59
65058;HTU21D;51644;51.068;5.860;2023-05-10T03:57:01;14.41;91.45
65058;HTU21D;51644;51.068;5.860;2023-05-10T03:58:00;14.42;91.39
65058;HTU21D;51644;51.068;5.860;2023-05-10T03:58:59;14.42;91.38
65058;HTU21D;51644;51.068;5.860;2023-05-10T03:59:58;14.44;91.32
65058;HTU21D;51644;51.068;5.860;2023-05-10T04:00:56;14.45;91.24
65058;HTU21D;51644;51.068;5.860;2023-05-10T04:01:58;14.45;91.27
65058;HTU21D;51644;51.068;5.860;2023-05-10T04:02:57;14.48;91.31
65058;HTU21D;51644;51.068;5.860;2023-05-10T04:03:55;14.48;91.29
65058;HTU21D;51644;51.068;5.860;2023-05-10T04:04:55;14.50;91.17
65058;HTU21D;51644;51.068;5.860;2023-05-10T04:06:20;14.51;91.14
65058;HTU21D;51644;51.068;5.860;2023-05-10T04:07:27;14.52;91.05
65058;HTU21D;51644;51.068;5.860;2023-05-10T04:08:25;14.52;91.13
65058;HTU21D;51644;51.068;5.860;2023-05-10T04:09:24;14.52;90.99
65058;HTU21D;51644;51.068;5.860;2023-05-10T04:10:26;14.53;91.02
65058;HTU21D;51644;51.068;5.860;2023-05-10T04:11:27;14.55;90.91
65058;HTU21D;51644;51.068;5.860;2023-05-10T04:12:26;14.51;91.07
65058;HTU21D;51644;51.068;5.860;2023-05-10T04:13:25;14.53;90.91
65058;HTU21D;51644;51.068;5.860;2023-05-10T04:14:26;14.51;90.93
65058;HTU21D;51644;51.068;5.860;2023-05-10T04:15:27;14.51;90.92
65058;HTU21D;51644;51.068;5.860;2023-05-10T04:16:25;14.51;90.95
65058;HTU21D;51644;51.068;5.860;2023-05-10T04:17:24;14.51;90.96
65058;HTU21D;51644;51.068;5.860;2023-05-10T04:18:23;14.52;90.99
65058;HTU21D;51644;51.068;5.860;2023-05-10T04:19:22;14.53;90.98
65058;HTU21D;51644;51.068;5.860;2023-05-10T04:20:24;14.51;91.05
65058;HTU21D;51644;51.068;5.860;2023-05-10T04:21:22;14.52;90.96
65058;HTU21D;51644;51.068;5.860;2023-05-10T04:22:24;14.50;90.96
65058;HTU21D;51644;51.068;5.860;2023-05-10T04:23:26;14.50;90.97
65058;HTU21D;51644;51.068;5.860;2023-05-10T04:24:35;14.51;90.92
65058;HTU21D;51644;51.068;5.860;2023-05-10T04:25:34;14.50;90.94
65058;HTU21D;51644;51.068;5.860;2023-05-10T04:26:34;14.51;90.92
65058;HTU21D;51644;51.068;5.860;2023-05-10T04:27:35;14.49;90.96
65058;HTU21D;51644;51.068;5.860;2023-05-10T04:28:34;14.49;91.01
65058;HTU21D;51644;51.068;5.860;2023-05-10T04:29:34;14.51;90.98
65058;HTU21D;51644;51.068;5.860;2023-05-10T04:30:32;14.48;91.05
65058;HTU21D;51644;51.068;5.860;2023-05-10T04:31:34;14.50;91.03
65058;HTU21D;51644;51.068;5.860;2023-05-10T04:32:34;14.50;91.01
65058;HTU21D;51644;51.068;5.860;2023-05-10T04:33:44;14.51;91.02
65058;HTU21D;51644;51.068;5.860;2023-05-10T04:34:43;14.52;91.00
65058;HTU21D;51644;51.068;5.860;2023-05-10T04:35:42;14.52;91.05
65058;HTU21D;51644;51.068;5.860;2023-05-10T04:36:43;14.49;91.27
65058;HTU21D;51644;51.068;5.860;2023-05-10T04:37:44;14.51;91.05
65058;HTU21D;51644;51.068;5.860;2023-05-10T04:38:48;14.50;91.06
65058;HTU21D;51644;51.068;5.860;2023-05-10T04:39:47;14.50;91.04
65058;HTU21D;51644;51.068;5.860;2023-05-10T04:40:48;14.50;91.03
65058;HTU21D;51644;51.068;5.860;2023-05-10T04:41:47;14.51;91.02
65058;HTU21D;51644;51.068;5.860;2023-05-10T04:42:48;14.52;91.00
65058;HTU21D;51644;51.068;5.860;2023-05-10T04:43:47;14.54;90.97
65058;HTU21D;51644;51.068;5.860;2023-05-10T04:44:47;14.56;90.95
65058;HTU21D;51644;51.068;5.860;2023-05-10T04:45:46;14.58;90.95
65058;HTU21D;51644;51.068;5.860;2023-05-10T04:46:45;14.60;90.77
65058;HTU21D;51644;51.068;5.860;2023-05-10T04:47:44;14.60;90.82
65058;HTU21D;51644;51.068;5.860;2023-05-10T04:48:43;14.59;90.86
65058;HTU21D;51644;51.068;5.860;2023-05-10T04:49:42;14.63;90.78
65058;HTU21D;51644;51.068;5.860;2023-05-10T04:50:41;14.63;90.80
65058;HTU21D;51644;51.068;5.860;2023-05-10T04:51:40;14.60;90.87
65058;HTU21D;51644;51.068;5.860;2023-05-10T04:52:39;14.60;90.76
65058;HTU21D;51644;51.068;5.860;2023-05-10T04:53:38;14.59;90.86
65058;HTU21D;51644;51.068;5.860;2023-05-10T04:54:37;14.58;90.92
65058;HTU21D;51644;51.068;5.860;2023-05-10T04:55:35;14.59;90.85
65058;HTU21D;51644;51.068;5.860;2023-05-10T04:56:37;14.60;90.88
65058;HTU21D;51644;51.068;5.860;2023-05-10T04:57:35;14.60;90.90
65058;HTU21D;51644;51.068;5.860;2023-05-10T04:58:34;14.60;90.91
65058;HTU21D;51644;51.068;5.860;2023-05-10T04:59:36;14.63;90.89
65058;HTU21D;51644;51.068;5.860;2023-05-10T05:00:35;14.64;90.92
65058;HTU21D;51644;51.068;5.860;2023-05-10T05:01:34;14.65;90.85
65058;HTU21D;51644;51.068;5.860;2023-05-10T05:02:33;14.67;90.87
65058;HTU21D;51644;51.068;5.860;2023-05-10T05:03:35;14.67;90.89
65058;HTU21D;51644;51.068;5.860;2023-05-10T05:04:36;14.69;90.63
65058;HTU21D;51644;51.068;5.860;2023-05-10T05:05:38;14.70;90.66
65058;HTU21D;51644;51.068;5.860;2023-05-10T05:06:37;14.69;90.69
65058;HTU21D;51644;51.068;5.860;2023-05-10T05:07:36;14.70;90.64
65058;HTU21D;51644;51.068;5.860;2023-05-10T05:08:34;14.70;90.66
65058;HTU21D;51644;51.068;5.860;2023-05-10T05:09:33;14.72;90.66
65058;HTU21D;51644;51.068;5.860;2023-05-10T05:10:32;14.73;90.70
65058;HTU21D;51644;51.068;5.860;2023-05-10T05:11:30;14.75;90.60
65058;HTU21D;51644;51.068;5.860;2023-05-10T05:12:29;14.74;90.62
65058;HTU21D;51644;51.068;5.860;2023-05-10T05:13:27;14.75;90.59
65058;HTU21D;51644;51.068;5.860;2023-05-10T05:14:26;14.78;90.53
65058;HTU21D;51644;51.068;5.860;2023-05-10T05:15:25;14.78;90.53
65058;HTU21D;51644;51.068;5.860;2023-05-10T05:16:23;14.78;90.51
65058;HTU21D;51644;51.068;5.860;2023-05-10T05:17:22;14.75;90.54
65058;HTU21D;51644;51.068;5.860;2023-05-10T05:18:21;14.73;90.59
65058;HTU21D;51644;51.068;5.860;2023-05-10T05:19:19;14.73;90.52
65058;HTU21D;51644;51.068;5.860;2023-05-10T05:20:36;14.72;90.52
65058;HTU21D;51644;51.068;5.860;2023-05-10T05:21:34;14.67;90.66
65058;HTU21D;51644;51.068;5.860;2023-05-10T05:22:35;14.68;90.68
65058;HTU21D;51644;51.068;5.860;2023-05-10T05:23:33;14.65;90.66
65058;HTU21D;51644;51.068;5.860;2023-05-10T05:24:35;14.60;90.89
65058;HTU21D;51644;51.068;5.860;2023-05-10T05:25:36;14.59;90.88
65058;HTU21D;51644;51.068;5.860;2023-05-10T05:26:35;14.59;90.78
65058;HTU21D;51644;51.068;5.860;2023-05-10T05:27:33;14.58;90.85
65058;HTU21D;51644;51.068;5.860;2023-05-10T05:28:32;14.57;90.80
65058;HTU21D;51644;51.068;5.860;2023-05-10T05:29:33;14.57;90.86
65058;HTU21D;51644;51.068;5.860;2023-05-10T05:30:32;14.58;90.90
65058;HTU21D;51644;51.068;5.860;2023-05-10T05:31:30;14.59;90.73
65058;HTU21D;51644;51.068;5.860;2023-05-10T05:32:29;14.55;90.98
65058;HTU21D;51644;51.068;5.860;2023-05-10T05:33:27;14.53;91.17
65058;HTU21D;51644;51.068;5.860;2023-05-10T05:34:26;14.52;91.02
65058;HTU21D;51644;51.068;5.860;2023-05-10T05:35:25;14.50;91.11
65058;HTU21D;51644;51.068;5.860;2023-05-10T05:36:24;14.51;90.97
65058;HTU21D;51644;51.068;5.860;2023-05-10T05:37:22;14.51;91.08
65058;HTU21D;51644;51.068;5.860;2023-05-10T05:38:22;14.54;90.94
65058;HTU21D;51644;51.068;5.860;2023-05-10T05:39:21;14.54;90.95
65058;HTU21D;51644;51.068;5.860;2023-05-10T05:40:20;14.55;90.97
65058;HTU21D;51644;51.068;5.860;2023-05-10T05:41:19;14.58;90.86
65058;HTU21D;51644;51.068;5.860;2023-05-10T05:42:18;14.55;90.99
65058;HTU21D;51644;51.068;5.860;2023-05-10T05:43:17;14.54;91.04
65058;HTU21D;51644;51.068;5.860;2023-05-10T05:44:15;14.53;90.94
65058;HTU21D;51644;51.068;5.860;2023-05-10T05:45:14;14.53;90.86
65058;HTU21D;51644;51.068;5.860;2023-05-10T05:46:12;14.55;90.85
65058;HTU21D;51644;51.068;5.860;2023-05-10T05:47:11;14.56;90.85
65058;HTU21D;51644;51.068;5.860;2023-05-10T05:48:09;14.56;90.94
65058;HTU21D;51644;51.068;5.860;2023-05-10T05:49:08;14.54;91.01
65058;HTU21D;51644;51.068;5.860;2023-05-10T05:50:07;14.55;90.92
65058;HTU21D;51644;51.068;5.860;2023-05-10T05:51:06;14.52;91.08
65058;HTU21D;51644;51.068;5.860;2023-05-10T05:52:04;14.53;90.95
65058;HTU21D;51644;51.068;5.860;2023-05-10T05:53:03;14.53;90.95
65058;HTU21D;51644;51.068;5.860;2023-05-10T05:54:01;14.54;90.80
65058;HTU21D;51644;51.068;5.860;2023-05-10T05:55:02;14.54;90.80
65058;HTU21D;51644;51.068;5.860;2023-05-10T05:56:01;14.56;90.77
65058;HTU21D;51644;51.068;5.860;2023-05-10T05:57:00;14.56;90.82
65058;HTU21D;51644;51.068;5.860;2023-05-10T05:57:59;14.58;90.82
65058;HTU21D;51644;51.068;5.860;2023-05-10T05:58:57;14.57;90.87
65058;HTU21D;51644;51.068;5.860;2023-05-10T05:59:56;14.58;90.75
65058;HTU21D;51644;51.068;5.860;2023-05-10T06:00:55;14.57;90.84
65058;HTU21D;51644;51.068;5.860;2023-05-10T06:01:53;14.58;90.73
65058;HTU21D;51644;51.068;5.860;2023-05-10T06:02:52;14.59;90.67
65058;HTU21D;51644;51.068;5.860;2023-05-10T06:03:51;14.62;90.66
65058;HTU21D;51644;51.068;5.860;2023-05-10T06:04:50;14.63;90.63
65058;HTU21D;51644;51.068;5.860;2023-05-10T06:05:48;14.63;90.64
65058;HTU21D;51644;51.068;5.860;2023-05-10T06:06:47;14.68;90.52
65058;HTU21D;51644;51.068;5.860;2023-05-10T06:07:45;14.69;90.51
65058;HTU21D;51644;51.068;5.860;2023-05-10T06:08:44;14.69;90.60
65058;HTU21D;51644;51.068;5.860;2023-05-10T06:09:42;14.69;90.54
65058;HTU21D;51644;51.068;5.860;2023-05-10T06:10:41;14.70;90.38
65058;HTU21D;51644;51.068;5.860;2023-05-10T06:11:40;14.73;90.40
65058;HTU21D;51644;51.068;5.860;2023-05-10T06:12:38;14.77;90.35
65058;HTU21D;51644;51.068;5.860;2023-05-10T06:13:37;14.80;90.30
65058;HTU21D;51644;51.068;5.860;2023-05-10T06:14:36;14.81;90.26
65058;HTU21D;51644;51.068;5.860;2023-05-10T06:15:34;14.85;90.17
65058;HTU21D;51644;51.068;5.860;2023-05-10T06:16:36;14.86;90.09
65058;HTU21D;51644;51.068;5.860;2023-05-10T06:17:34;14.85;90.26
65058;HTU21D;51644;51.068;5.860;2023-05-10T06:18:33;14.88;90.11
65058;HTU21D;51644;51.068;5.860;2023-05-10T06:19:32;14.87;90.13
65058;HTU21D;51644;51.068;5.860;2023-05-10T06:20:30;14.87;90.10
65058;HTU21D;51644;51.068;5.860;2023-05-10T06:21:32;14.88;90.07
65058;HTU21D;51644;51.068;5.860;2023-05-10T06:22:30;14.89;90.09
65058;HTU21D;51644;51.068;5.860;2023-05-10T06:23:29;14.88;90.05
65058;HTU21D;51644;51.068;5.860;2023-05-10T06:24:27;14.89;90.02
65058;HTU21D;51644;51.068;5.860;2023-05-10T06:25:26;14.88;90.26
65058;HTU21D;51644;51.068;5.860;2023-05-10T06:26:25;14.92;90.15
65058;HTU21D;51644;51.068;5.860;2023-05-10T06:27:23;14.97;89.98
65058;HTU21D;51644;51.068;5.860;2023-05-10T06:28:22;15.08;89.95
65058;HTU21D;51644;51.068;5.860;2023-05-10T06:29:21;15.14;89.86
65058;HTU21D;51644;51.068;5.860;2023-05-10T06:30:19;15.22;89.70
65058;HTU21D;51644;51.068;5.860;2023-05-10T06:31:21;15.30;89.57
65058;HTU21D;51644;51.068;5.860;2023-05-10T06:32:19;15.40;89.12
65058;HTU21D;51644;51.068;5.860;2023-05-10T06:33:18;15.51;88.76
65058;HTU21D;51644;51.068;5.860;2023-05-10T06:34:16;15.60;88.60
65058;HTU21D;51644;51.068;5.860;2023-05-10T06:35:15;15.71;88.26
65058;HTU21D;51644;51.068;5.860;2023-05-10T06:36:14;15.80;88.10
65058;HTU21D;51644;51.068;5.860;2023-05-10T06:37:12;15.95;87.64